Time;durP1;ratioP1;P1;durP2;ratioP2;P2;SDS_P1;SDS_P2;PMS_P1;PMS_P2;Temp;Humidity;BMP_temperature;BMP_pressure;BME280_temperature;BME280_humidity;BME280_pressure;Samples;Min_cycle;Max_cycle;Signal;HPM_P1;HPM_P2
2022/01/30 00:01:34;;;;;;;29.37;5.53;;;;;;;3.93;87.16;100072.84;5052016;28;20036;-86
2022/01/30 00:04:00;;;;;;;34.37;5.70;;;;;;;3.96;87.39;100093.69;5052075;28;20150;-86
2022/01/30 00:06:25;;;;;;;30.35;5.68;;;;;;;4.13;86.67;100094.81;5052016;28;20041;-86
2022/01/30 00:08:50;;;;;;;25.50;6.23;;;;;;;4.25;85.96;100077.03;5052413;28;20042;-87
2022/01/30 00:11:21;;;;;;;36.08;5.47;;;;;;;4.31;85.71;100062.44;5052039;28;20035;-87
2022/01/30 00:13:47;;;;;;;33.90;5.20;;;;;;;4.30;85.04;100037.81;5069888;28;20036;-86
2022/01/30 00:16:15;;;;;;;40.88;6.97;;;;;;;4.47;84.14;100030.16;5068509;28;20113;-86
2022/01/30 00:23:46;;;;;;;42.78;7.93;;;;;;;4.26;86.33;100143.94;5061279;22;20044;-77
2022/01/30 00:26:14;;;;;;;37.35;7.70;;;;;;;4.01;88.70;100173.34;5016629;28;20037;-78
2022/01/30 00:28:40;;;;;;;40.08;8.77;;;;;;;3.77;91.26;100268.75;5018960;28;20041;-80
2022/01/30 00:31:06;;;;;;;34.30;6.90;;;;;;;3.56;93.37;100273.22;5038196;28;20043;-80
2022/01/30 00:33:31;;;;;;;41.88;9.00;;;;;;;3.50;95.80;100322.06;5021023;28;20029;-79
2022/01/30 00:35:56;;;;;;;56.03;8.87;;;;;;;3.40;98.12;100365.19;5019551;28;20033;-79
2022/01/30 00:38:23;;;;;;;47.67;6.90;;;;;;;3.32;100.00;100387.72;5018544;28;20032;-78
2022/01/30 00:40:49;;;;;;;;;;;;;;;3.23;100.00;100338.38;5036940;28;20116;-78
2022/01/30 00:43:15;;;;;;;34.55;6.30;;;;;;;3.12;100.00;100362.13;5020166;28;20728;-79
2022/01/30 00:45:42;;;;;;;34.55;5.57;;;;;;;3.07;100.00;100335.31;5019553;28;20536;-79
2022/01/30 00:48:07;;;;;;;27.92;6.45;;;;;;;3.12;100.00;100348.94;5019325;28;20021;-78
2022/01/30 00:50:33;;;;;;;35.22;6.80;;;;;;;3.08;100.00;100343.06;5020334;28;20106;-79
2022/01/30 00:52:59;;;;;;;31.95;6.65;;;;;;;3.09;100.00;100330.72;5019103;28;20068;-77
2022/01/30 00:55:26;;;;;;;39.28;10.40;;;;;;;3.15;100.00;100341.63;5035714;28;20180;-78
2022/01/30 00:57:52;;;;;;;45.67;6.90;;;;;;;3.36;100.00;100344.31;5018821;28;20486;-78
2022/01/30 01:00:18;;;;;;;25.90;5.72;;;;;;;3.48;100.00;100307.31;5018205;28;20108;-78
2022/01/30 01:02:44;;;;;;;47.00;7.53;;;;;;;3.42;99.30;100266.44;5018578;28;20120;-78
2022/01/30 01:05:10;;;;;;;40.53;7.97;;;;;;;3.32;99.31;100250.50;5018363;28;20441;-78
2022/01/30 01:07:39;;;;;;;31.38;6.75;;;;;;;3.48;98.09;100249.25;5017674;28;20033;-78
2022/01/30 01:10:42;;;;;;;24.73;6.07;;;;;;;3.49;97.22;100243.84;5035114;28;20067;-78
2022/01/30 01:13:08;;;;;;;37.83;8.77;;;;;;;3.56;96.31;100241.53;5032999;28;20036;-79
2022/01/30 01:23:53;;;;;;;27.73;5.25;;;;;;;3.74;91.72;100159.91;5034666;28;20044;-79
2022/01/30 01:26:20;;;;;;;31.75;6.45;;;;;;;3.68;90.99;100153.38;5018852;28;20115;-77
2022/01/30 01:28:46;;;;;;;32.42;6.28;;;;;;;3.72;89.91;100115.16;5018422;28;20036;-79
2022/01/30 01:31:12;;;;;;;29.10;6.43;;;;;;;3.80;88.82;100117.97;5018471;28;20029;-78
2022/01/30 01:36:09;;;;;;;17.45;4.25;;;;;;;3.88;87.51;100100.59;5034699;28;20563;-78
2022/01/30 01:38:35;;;;;;;19.77;5.47;;;;;;;3.90;86.55;100074.91;5017972;28;20021;-78
2022/01/30 01:41:00;;;;;;;28.08;5.55;;;;;;;3.94;85.63;100055.19;5016837;28;20390;-78
2022/01/30 01:43:27;;;;;;;26.23;6.78;;;;;;;3.99;84.94;100052.97;5017965;28;20116;-79
2022/01/30 01:45:55;;;;;;;22.13;6.53;;;;;;;4.11;84.35;100014.88;5017704;28;20036;-78
2022/01/30 01:48:33;;;;;;;27.13;5.10;;;;;;;4.21;83.30;100013.09;5017538;28;20036;-79
2022/01/30 01:51:06;;;;;;;39.85;6.72;;;;;;;4.18;83.18;100005.41;5018059;28;20043;-79
2022/01/30 01:53:32;;;;;;;31.92;6.82;;;;;;;4.28;82.70;99989.56;5017316;28;20033;-80
2022/01/30 01:55:58;;;;;;;38.78;6.78;;;;;;;4.32;81.99;99998.03;5017814;28;20027;-79
2022/01/30 01:58:26;;;;;;;26.63;6.40;;;;;;;4.37;81.75;99996.63;5017934;28;20094;-80
2022/01/30 02:01:24;;;;;;;29.55;5.80;;;;;;;4.38;81.56;99963.97;4997415;28;20170;-80
2022/01/30 02:03:49;;;;;;;40.63;6.28;;;;;;;4.38;81.17;99966.59;5033979;28;20048;-80
2022/01/30 02:06:19;;;;;;;25.73;6.20;;;;;;;4.54;80.50;99934.31;5018072;28;20433;-80
2022/01/30 02:08:52;;;;;;;30.38;5.65;;;;;;;4.51;80.10;99939.84;5018057;28;20037;-79
2022/01/30 02:11:36;;;;;;;33.42;6.22;;;;;;;4.58;79.69;99929.53;5034368;28;20568;-79
2022/01/30 02:27:14;;;;;;;34.85;7.78;;;;;;;4.55;78.91;99937.78;5035606;28;20044;-79
2022/01/30 02:29:40;;;;;;;38.85;8.43;;;;;;;4.62;78.75;99955.56;5034552;28;20032;-80
2022/01/30 02:32:06;;;;;;;33.75;6.47;;;;;;;4.63;78.43;99981.00;5018314;28;20025;-81
2022/01/30 02:34:32;;;;;;;41.75;7.82;;;;;;;4.71;77.74;99911.56;5018487;28;20079;-81
2022/01/30 02:36:59;;;;;;;;;;;;;;;4.60;77.93;99928.41;5019143;28;20037;-78
2022/01/30 02:39:25;;;;;;;28.27;7.03;;;;;;;4.71;77.90;99913.38;5034488;28;20296;-80
2022/01/30 02:41:52;;;;;;;25.60;7.13;;;;;;;4.72;77.43;99892.06;5018324;28;20041;-81
2022/01/30 02:44:25;;;;;;;;;;;;;;;4.85;77.01;99919.00;5053427;28;20025;-81
2022/01/30 02:46:54;;;;;;;32.67;5.95;;;;;;;4.71;77.90;99916.03;5015820;28;19920;-80
2022/01/30 02:52:03;;;;;;;25.15;5.88;;;;;;;4.56;79.61;100030.13;5035458;28;20052;-81
2022/01/30 02:54:30;;;;;;;41.97;9.95;;;;;;;4.51;80.09;100032.38;5017896;28;20051;-79
2022/01/30 02:56:56;;;;;;;44.88;7.40;;;;;;;4.55;80.02;100039.06;5035682;28;20037;-80
2022/01/30 02:59:22;;;;;;;33.85;5.82;;;;;;;4.51;80.48;100032.38;5034881;28;20067;-80
2022/01/30 03:01:48;;;;;;;30.55;6.20;;;;;;;4.57;80.31;100031.81;5018531;28;20041;-80
2022/01/30 03:04:13;;;;;;;33.53;6.40;;;;;;;4.56;80.29;100024.84;5018312;28;20048;-78
2022/01/30 03:06:39;;;;;;;38.15;9.25;;;;;;;4.58;80.33;100017.63;5035469;28;20163;-80
2022/01/30 03:09:07;;;;;;;40.22;7.50;;;;;;;4.55;80.49;100022.38;5019273;28;20051;-80
2022/01/30 03:11:34;;;;;;;54.55;7.32;;;;;;;4.58;80.49;100067.84;5018576;28;20025;-78
2022/01/30 03:14:00;;;;;;;36.78;6.57;;;;;;;4.61;80.18;100027.06;5018687;28;20025;-80
2022/01/30 03:16:25;;;;;;;33.35;7.80;;;;;;;4.55;80.28;100039.06;5018557;28;20040;-81
2022/01/30 03:18:52;;;;;;;30.33;5.30;;;;;;;4.53;80.45;100041.00;5019577;28;20051;-81
2022/01/30 03:21:18;;;;;;;25.52;5.68;;;;;;;4.52;80.67;100065.78;5019715;28;20116;-81
2022/01/30 03:23:44;;;;;;;39.15;7.93;;;;;;;4.56;80.65;100027.50;5019098;28;20139;-79
2022/01/30 03:26:11;;;;;;;32.00;6.75;;;;;;;4.44;81.29;100063.00;5036454;28;20065;-81
2022/01/30 03:29:06;;;;;;;32.97;5.78;;;;;;;4.38;82.06;100097.94;5024182;28;20452;-79
2022/01/30 03:31:41;;;;;;;38.55;6.90;;;;;;;4.30;83.25;100127.66;5021409;28;20094;-79
2022/01/30 03:34:11;;;;;;;36.63;7.90;;;;;;;4.26;84.10;100196.78;5036383;28;20029;-81
2022/01/30 03:36:43;;;;;;;;;;;;;;;4.20;85.16;100217.50;5021795;28;20033;-81
2022/01/30 03:39:09;;;;;;;47.10;7.40;;;;;;;4.19;85.72;100207.03;5020789;28;19917;-80
2022/01/30 03:41:34;;;;;;;38.10;8.38;;;;;;;4.15;86.17;100230.28;5037709;28;20052;-81
2022/01/30 03:44:02;;;;;;;41.78;7.10;;;;;;;4.09;86.40;100201.72;5020545;28;20037;-81
2022/01/30 03:46:28;;;;;;;42.20;7.65;;;;;;;4.19;85.96;100202.63;5020608;28;20091;-81
2022/01/30 03:48:53;;;;;;;28.13;6.20;;;;;;;4.25;84.99;100173.97;5021199;28;20040;-80
2022/01/30 03:51:26;;;;;;;32.70;7.72;;;;;;;4.28;84.37;100168.41;5022152;28;20025;-81
2022/01/30 03:53:55;;;;;;;34.45;8.13;;;;;;;4.35;83.79;100143.94;5020554;28;20068;-80
2022/01/30 03:56:20;;;;;;;40.97;7.97;;;;;;;4.33;83.51;100071.06;5037169;28;20375;-81
2022/01/30 03:58:46;;;;;;;29.67;6.70;;;;;;;4.38;83.30;100121.72;5018506;28;20153;-78
2022/01/30 04:01:15;;;;;;;45.38;8.90;;;;;;;4.33;83.68;100139.75;5015704;28;20063;-79
2022/01/30 04:03:40;;;;;;;32.97;7.40;;;;;;;4.35;83.62;100137.81;5015606;28;20463;-79
2022/01/30 04:06:07;;;;;;;35.42;7.03;;;;;;;4.34;83.75;100136.16;5019030;28;20282;-79
2022/01/30 04:08:33;;;;;;;33.38;6.40;;;;;;;4.36;83.97;100142.16;5019593;28;20035;-79
2022/01/30 04:11:09;;;;;;;;;;;;;;;4.41;84.03;100193.63;5021625;28;20032;-80
2022/01/30 04:13:41;;;;;;;42.25;7.90;;;;;;;4.43;83.63;100183.75;5020529;28;19913;-80
2022/01/30 04:16:31;;;;;;;37.45;8.13;;;;;;;4.44;83.29;100147.56;5022759;28;20110;-79
2022/01/30 04:19:05;;;;;;;52.40;10.10;;;;;;;4.44;83.50;100151.03;5020317;28;20035;-80
2022/01/30 04:21:49;;;;;;;42.63;8.63;;;;;;;4.48;83.22;100151.63;5038578;28;20044;-79
2022/01/30 04:24:20;;;;;;;47.85;8.65;;;;;;;4.51;82.93;100159.25;5036353;28;20051;-79
2022/01/30 04:26:58;;;;;;;48.35;9.75;;;;;;;4.53;83.09;100115.03;5020835;28;20029;-79
2022/01/30 04:29:42;;;;;;;47.92;9.02;;;;;;;4.56;82.81;100191.41;5037936;28;20052;-78
2022/01/30 04:32:27;;;;;;;33.35;7.75;;;;;;;4.62;81.96;100131.88;5040755;28;20087;-79
2022/01/30 04:35:24;;;;;;;34.92;5.78;;;;;;;4.64;82.02;100119.34;5037854;28;20041;-79
2022/01/30 04:38:33;;;;;;;28.58;7.47;;;;;;;4.67;81.77;100118.25;5037152;28;20106;-78
2022/01/30 04:59:46;;;;;;;42.85;8.35;;;;;;;4.50;82.30;100183.22;5052574;28;20525;-79
2022/01/30 05:02:51;;;;;;;40.92;7.53;;;;;;;4.57;82.04;100171.94;5030622;28;20306;-77
2022/01/30 05:05:53;;;;;;;43.20;7.15;;;;;;;4.55;82.06;100191.56;5034693;28;20029;-78
2022/01/30 05:08:21;;;;;;;34.10;7.38;;;;;;;4.58;81.62;100155.09;5034569;28;20583;-78
2022/01/30 05:10:58;;;;;;;31.98;6.72;;;;;;;4.56;81.81;100180.84;5019458;28;20040;-78
2022/01/30 05:13:49;;;;;;;31.95;8.63;;;;;;;4.69;81.55;100206.19;5021253;28;20033;-78
2022/01/30 05:16:38;;;;;;;37.30;7.32;;;;;;;4.70;81.32;100176.13;5019892;28;20033;-79
2022/01/30 05:19:27;;;;;;;33.15;8.15;;;;;;;4.65;80.89;100155.38;5037727;28;20071;-78
2022/01/30 05:22:01;;;;;;;41.55;8.25;;;;;;;4.72;81.03;100188.22;5019058;28;20036;-79
2022/01/30 05:24:37;;;;;;;;;;;;;;;4.73;80.73;100166.13;5034627;28;20033;-79
2022/01/30 05:27:12;;;;;;;33.28;7.72;;;;;;;4.70;80.82;100178.75;5018956;28;20008;-79
2022/01/30 05:29:40;;;;;;;31.92;7.63;;;;;;;4.70;80.48;100184.88;5052094;28;20047;-79
2022/01/30 05:32:32;;;;;;;39.20;7.38;;;;;;;4.56;80.74;100187.94;5031541;28;20036;-79
2022/01/30 05:35:10;;;;;;;30.60;7.40;;;;;;;4.67;80.73;100222.19;5018970;28;20124;-78
2022/01/30 05:37:43;;;;;;;40.50;6.10;;;;;;;4.52;81.73;100232.34;5017361;28;20410;-79
2022/01/30 05:40:28;;;;;;;39.13;7.47;;;;;;;4.60;81.63;100277.41;5022273;28;20048;-78
2022/01/30 05:43:05;;;;;;;32.13;6.32;;;;;;;4.60;80.94;100247.50;5051946;28;20398;-78
2022/01/30 05:45:56;;;;;;;34.42;6.18;;;;;;;4.61;80.30;100228.88;5036188;28;20075;-77
2022/01/30 05:48:47;;;;;;;29.35;6.50;;;;;;;4.57;80.58;100243.34;5019374;28;20040;-79
2022/01/30 05:51:38;;;;;;;37.88;7.22;;;;;;;4.58;80.57;100234.41;5035021;28;20136;-79
2022/01/30 05:54:18;;;;;;;38.78;6.57;;;;;;;4.60;80.31;100258.91;5017008;28;20043;-77
2022/01/30 05:56:44;;;;;;;30.67;6.20;;;;;;;4.60;80.24;100229.00;5015948;28;20033;-79
2022/01/30 05:59:16;;;;;;;27.25;6.15;;;;;;;4.58;79.95;100229.13;5016711;28;20024;-77
2022/01/30 06:02:09;;;;;;;35.90;6.57;;;;;;;4.54;79.66;100243.63;5020132;28;20445;-80
2022/01/30 06:04:34;;;;;;;31.33;7.47;;;;;;;4.56;79.03;100191.41;5032167;28;20041;-80
2022/01/30 06:07:01;;;;;;;28.70;5.87;;;;;;;4.58;78.49;100210.63;5032358;28;20291;-79
2022/01/30 06:09:26;;;;;;;;;;;;;;;4.60;77.95;100176.13;5016667;28;20104;-79
2022/01/30 06:11:54;;;;;;;34.05;6.75;;;;;;;4.63;77.17;100163.44;5016186;28;19916;-79
2022/01/30 06:14:22;;;;;;;23.85;5.15;;;;;;;4.61;76.94;100154.84;5015930;28;20072;-77
2022/01/30 06:16:53;;;;;;;32.55;6.25;;;;;;;4.70;76.17;100132.00;5016555;28;20116;-79
2022/01/30 06:19:38;;;;;;;35.25;6.30;;;;;;;4.64;76.37;100138.69;5035403;28;20044;-78
2022/01/30 06:22:24;;;;;;;28.65;6.18;;;;;;;4.63;75.32;100099.97;5034945;28;20499;-78
2022/01/30 06:25:08;;;;;;;37.90;8.25;;;;;;;4.70;74.86;100078.28;5034881;28;20048;-78
2022/01/30 06:27:54;;;;;;;31.45;5.63;;;;;;;4.64;74.72;100051.44;5034285;28;20041;-78
2022/01/30 06:30:38;;;;;;;26.80;5.38;;;;;;;4.65;74.39;100123.66;5035293;28;20056;-80
2022/01/30 06:33:29;;;;;;;38.78;5.63;;;;;;;4.70;74.50;100124.06;5028557;28;20170;-78
2022/01/30 06:36:13;;;;;;;31.50;6.45;;;;;;;4.72;74.38;100129.22;5035591;28;20048;-79
2022/01/30 06:38:46;;;;;;;37.10;6.43;;;;;;;4.67;74.73;100160.53;5016389;28;20123;-79
2022/01/30 06:41:11;;;;;;;31.30;7.20;;;;;;;4.66;75.37;100207.31;5032788;28;20454;-78
2022/01/30 06:43:55;;;;;;;37.63;7.60;;;;;;;4.67;76.00;100274.25;5035298;28;20508;-78
2022/01/30 06:46:40;;;;;;;47.83;8.43;;;;;;;4.59;76.68;100304.84;5050254;28;20075;-78
2022/01/30 06:49:26;;;;;;;32.90;6.25;;;;;;;4.71;76.21;100278.31;5034998;28;20303;-79
2022/01/30 06:52:11;;;;;;;37.25;5.72;;;;;;;4.63;75.46;100237.47;5035044;28;20479;-78
2022/01/30 06:54:57;;;;;;;38.05;7.97;;;;;;;4.65;75.01;100230.25;5033906;28;20037;-79
2022/01/30 06:57:57;;;;;;;29.70;6.25;;;;;;;4.62;74.30;100204.09;5008009;28;20064;-78
2022/01/30 07:00:49;;;;;;;25.75;4.85;;;;;;;4.69;73.59;100135.63;5033192;28;20091;-77
2022/01/30 07:03:33;;;;;;;32.05;6.25;;;;;;;4.67;73.30;100165.84;5034763;28;20411;-79
2022/01/30 07:06:12;;;;;;;40.70;5.57;;;;;;;4.67;73.06;100152.59;5017434;28;20032;-78
2022/01/30 07:08:40;;;;;;;24.58;5.30;;;;;;;4.62;72.89;100156.50;5015790;28;20060;-79
2022/01/30 07:11:05;;;;;;;28.45;6.57;;;;;;;4.63;72.93;100163.44;5032185;28;20068;-81
2022/01/30 07:13:30;;;;;;;34.57;5.93;;;;;;;4.68;72.79;100149.81;5015656;28;20033;-78
2022/01/30 07:15:56;;;;;;;24.53;5.80;;;;;;;4.68;72.78;100186.81;5032045;28;20021;-77
2022/01/30 07:18:21;;;;;;;30.37;4.90;;;;;;;4.69;72.81;100192.97;5015571;28;20088;-78
2022/01/30 07:20:47;;;;;;;33.50;7.07;;;;;;;4.62;73.59;100212.03;5031985;28;20037;-78
2022/01/30 07:23:12;;;;;;;34.60;7.87;;;;;;;4.61;73.60;100250.03;5030172;28;20074;-78
2022/01/30 07:25:37;;;;;;;41.80;6.23;;;;;;;4.70;73.38;100272.16;5011565;28;20033;-79
2022/01/30 07:28:03;;;;;;;33.30;5.93;;;;;;;4.73;73.45;100241.94;5002848;28;20487;-80
2022/01/30 07:30:28;;;;;;;38.17;6.30;;;;;;;4.67;73.76;100279.53;5012301;28;20061;-78
2022/01/30 07:32:54;;;;;;;31.93;7.13;;;;;;;4.70;73.75;100292.47;5012321;28;20189;-79
2022/01/30 07:35:20;;;;;;;35.67;7.55;;;;;;;4.61;73.95;100276.47;4995103;28;20041;-79
2022/01/30 07:37:46;;;;;;;32.45;6.38;;;;;;;4.63;73.96;100293.00;4995620;28;20029;-79
2022/01/30 07:40:13;;;;;;;37.47;6.00;;;;;;;4.64;73.64;100296.50;4997647;28;20041;-78
2022/01/30 07:42:38;;;;;;;38.20;6.53;;;;;;;4.67;73.01;100279.53;5049076;28;20795;-79
2022/01/30 07:45:05;;;;;;;26.05;6.28;;;;;;;4.68;72.73;100233.59;5032304;28;20176;-80
2022/01/30 07:47:30;;;;;;;;;;;;;;;4.67;72.16;100222.19;4999826;28;20176;-79
2022/01/30 07:49:57;;;;;;;33.22;7.47;;;;;;;4.64;71.42;100138.69;5015901;28;20363;-78
2022/01/30 07:52:23;;;;;;;33.28;7.22;;;;;;;4.65;70.85;100105.97;4999572;28;20034;-78
2022/01/30 07:54:49;;;;;;;28.88;6.13;;;;;;;4.99;71.92;100264.28;4999090;28;20110;-78
2022/01/30 07:57:15;;;;;;;48.00;7.07;;;;;;;4.69;70.08;100092.50;4999568;28;20068;-79
2022/01/30 07:59:41;;;;;;;32.53;6.93;;;;;;;4.65;69.48;100058.38;4999517;28;20529;-78
2022/01/30 08:02:07;;;;;;;48.83;7.70;;;;;;;4.71;69.54;100106.41;4999355;28;20025;-77
2022/01/30 08:04:33;;;;;;;61.25;9.00;;;;;;;4.71;69.73;100098.47;4999903;28;20172;-79
2022/01/30 08:06:59;;;;;;;31.73;6.95;;;;;;;4.69;70.11;100130.34;5015858;28;20044;-79
2022/01/30 08:09:25;;;;;;;40.53;8.93;;;;;;;4.70;70.25;100163.72;5030184;28;20036;-78
2022/01/30 08:11:54;;;;;;;40.30;7.80;;;;;;;4.69;70.37;100167.34;5047581;28;20025;-78
2022/01/30 08:14:20;;;;;;;48.25;6.93;;;;;;;4.69;70.48;100177.09;4997697;28;20052;-77
2022/01/30 08:16:45;;;;;;;37.78;8.27;;;;;;;4.67;70.60;100169.31;4997974;28;20029;-78
2022/01/30 08:19:10;;;;;;;50.00;7.93;;;;;;;4.62;70.96;100204.09;4999914;28;20037;-78
2022/01/30 08:21:36;;;;;;;32.03;8.30;;;;;;;4.69;70.39;100190.34;5030441;28;20037;-79
2022/01/30 08:24:01;;;;;;;44.60;8.50;;;;;;;4.79;69.77;100146.19;5030610;28;20084;-78
2022/01/30 08:26:27;;;;;;;38.00;8.57;;;;;;;4.73;69.73;100152.03;5014522;28;20533;-77
2022/01/30 08:28:52;;;;;;;41.03;7.37;;;;;;;4.69;69.09;100127.69;5014028;28;20041;-78
2022/01/30 08:31:18;;;;;;;45.83;8.83;;;;;;;4.69;68.94;100095.13;4998205;28;20272;-79
2022/01/30 08:33:43;;;;;;;45.15;7.05;;;;;;;4.75;68.66;100091.91;5030525;28;20041;-79
2022/01/30 08:36:08;;;;;;;51.70;10.48;;;;;;;4.82;67.60;100056.84;5014482;28;20045;-79
2022/01/30 08:38:34;;;;;;;35.80;6.60;;;;;;;4.88;66.53;100012.28;4997931;28;20025;-78
2022/01/30 08:40:59;;;;;;;44.58;8.38;;;;;;;5.09;65.98;100020.84;4998152;28;20033;-78
2022/01/30 08:43:25;;;;;;;35.22;8.02;;;;;;;5.02;65.47;99962.38;4997483;28;20091;-77
2022/01/30 08:45:51;;;;;;;42.70;8.53;;;;;;;5.20;64.67;99969.56;5014293;28;20036;-78
2022/01/30 08:48:18;;;;;;;42.85;8.73;;;;;;;5.48;64.19;99950.03;5014187;28;20038;-78
2022/01/30 08:50:44;;;;;;;37.65;7.18;;;;;;;5.36;64.29;99943.28;5031296;28;20044;-80
2022/01/30 08:53:09;;;;;;;42.10;7.07;;;;;;;5.59;64.06;99974.63;4997899;28;20086;-79
2022/01/30 08:55:35;;;;;;;36.63;7.83;;;;;;;5.58;63.85;99962.38;4997593;28;20087;-78
2022/01/30 08:58:07;;;;;;;31.57;8.20;;;;;;;5.59;63.46;99958.72;4997347;28;20326;-78
2022/01/30 09:00:35;;;;;;;49.45;7.65;;;;;;;5.73;63.46;99976.75;5013687;28;20037;-80
2022/01/30 09:03:02;;;;;;;38.10;8.07;;;;;;;5.89;62.78;99950.41;5013982;28;20061;-79
2022/01/30 09:05:28;;;;;;;35.40;8.77;;;;;;;5.97;62.25;99922.34;4997293;28;20757;-78
2022/01/30 09:07:53;;;;;;;42.88;9.20;;;;;;;5.89;61.82;99897.44;4997185;28;20038;-80
2022/01/30 09:10:18;;;;;;;28.23;6.83;;;;;;;5.96;61.91;99899.50;5039827;28;20094;-80
2022/01/30 09:12:44;;;;;;;36.37;7.33;;;;;;;6.01;61.57;99921.91;4998290;28;20491;-78
2022/01/30 09:15:15;;;;;;;34.20;7.47;;;;;;;5.97;61.41;99872.88;5014301;28;20303;-79
2022/01/30 09:17:41;;;;;;;37.90;8.25;;;;;;;6.27;61.10;99945.78;5014470;28;20441;-78
2022/01/30 09:20:07;;;;;;;49.22;9.25;;;;;;;6.37;60.58;99918.34;4997967;28;20029;-78
2022/01/30 09:22:33;;;;;;;39.03;8.43;;;;;;;6.51;60.04;99904.53;4997699;28;20034;-79
2022/01/30 09:24:59;;;;;;;46.90;8.90;;;;;;;6.83;59.47;99933.06;4997689;28;20697;-78
2022/01/30 09:27:24;;;;;;;42.33;9.27;;;;;;;6.93;58.70;99861.28;5013781;28;20030;-78
2022/01/30 09:29:49;;;;;;;50.07;8.13;;;;;;;7.01;58.35;99860.50;5013995;28;20518;-78
2022/01/30 09:32:15;;;;;;;28.93;6.17;;;;;;;7.41;58.53;99989.88;5013836;28;20029;-78
2022/01/30 09:34:40;;;;;;;46.67;8.80;;;;;;;7.09;58.04;99860.50;5013954;28;20017;-78
2022/01/30 09:37:06;;;;;;;46.23;6.57;;;;;;;6.82;59.08;99882.81;5030444;28;20033;-78
2022/01/30 09:39:32;;;;;;;39.75;7.28;;;;;;;6.63;58.92;99852.88;5030565;28;20287;-79
2022/01/30 09:41:58;;;;;;;33.40;7.28;;;;;;;6.66;58.89;99857.88;5013874;28;20060;-81
2022/01/30 09:44:24;;;;;;;37.65;7.40;;;;;;;7.17;58.95;100012.69;5013936;28;20521;-79
2022/01/30 09:46:50;;;;;;;46.63;7.97;;;;;;;7.31;58.81;100018.41;5012071;28;20041;-78
2022/01/30 09:49:22;;;;;;;35.22;7.13;;;;;;;7.56;58.32;100035.25;5051304;28;20031;-79
2022/01/30 09:51:47;;;;;;;44.22;8.10;;;;;;;7.42;58.73;100006.66;5033711;28;20636;-79
2022/01/30 09:54:12;;;;;;;37.73;7.87;;;;;;;7.32;58.73;100002.28;5016678;28;20037;-79
2022/01/30 09:56:38;;;;;;;41.37;8.00;;;;;;;7.04;59.02;99953.88;5033692;28;20036;-80
2022/01/30 09:59:04;;;;;;;31.17;6.38;;;;;;;7.25;59.37;100048.22;5058093;23;20045;-81
2022/01/30 10:01:35;;;;;;;39.88;11.65;;;;;;;7.72;58.85;100108.88;5054114;28;20111;-82
2022/01/30 10:04:03;;;;;;;42.88;9.35;;;;;;;7.81;58.18;100070.72;5053616;28;20033;-82
2022/01/30 10:06:36;;;;;;;40.65;9.45;;;;;;;7.76;57.85;100014.56;5021913;28;20056;-82
2022/01/30 10:09:23;;;;;;;43.17;8.60;;;;;;;7.45;58.27;100014.31;5032547;28;20036;-82
2022/01/30 10:11:59;;;;;;;38.65;8.15;;;;;;;7.08;58.69;99954.41;5041628;28;20037;-83
2022/01/30 10:14:24;;;;;;;33.55;6.28;;;;;;;7.56;59.28;100149.47;5041327;28;20036;-82
2022/01/30 10:16:50;;;;;;;54.27;8.43;;;;;;;7.30;58.81;100043.28;5041697;28;20017;-82
2022/01/30 10:19:21;;;;;;;46.50;8.38;;;;;;;7.25;58.67;99993.31;5041814;28;20039;-82
2022/01/30 10:21:48;;;;;;;40.75;8.88;;;;;;;7.69;58.50;100103.91;5041381;28;20037;-82
2022/01/30 10:24:21;;;;;;;37.92;9.32;;;;;;;6.98;58.45;99931.47;5036643;28;20079;-83
2022/01/30 10:26:47;;;;;;;37.47;6.60;;;;;;;7.53;58.66;100137.34;5057880;28;20033;-83
2022/01/30 10:29:24;;;;;;;43.80;8.50;;;;;;;7.39;57.99;99981.25;5039401;28;20155;-83
2022/01/30 10:31:58;;;;;;;38.88;7.07;;;;;;;7.64;58.23;100066.34;5024259;28;20290;-83
2022/01/30 10:34:23;;;;;;;33.85;8.55;;;;;;;7.49;57.63;99994.38;5040984;28;20047;-82
2022/01/30 10:36:49;;;;;;;37.97;8.30;;;;;;;7.39;58.35;100037.00;5042903;28;20024;-83
2022/01/30 10:39:18;;;;;;;33.83;7.47;;;;;;;7.12;58.02;99937.19;5040631;28;20037;-85
2022/01/30 10:41:52;;;;;;;38.20;8.43;;;;;;;7.55;58.28;100105.31;5041385;28;20041;-83
2022/01/30 10:44:19;;;;;;;40.63;8.38;;;;;;;7.69;57.88;100103.91;5042181;28;20040;-85
2022/01/30 10:46:48;;;;;;;40.08;8.88;;;;;;;7.82;57.17;100056.47;5042574;28;20033;-83
2022/01/30 10:49:19;;;;;;;40.50;8.00;;;;;;;8.07;57.35;100130.94;5040512;28;20025;-82
2022/01/30 10:52:01;;;;;;;35.90;8.23;;;;;;;8.04;56.33;99985.88;5038229;28;20482;-84
2022/01/30 10:54:34;;;;;;;49.85;8.55;;;;;;;7.82;55.80;99934.22;5038639;28;20029;-84
2022/01/30 10:57:07;;;;;;;34.25;7.10;;;;;;;7.49;56.24;99893.47;5041769;28;20059;-84
2022/01/30 10:59:33;;;;;;;34.72;8.60;;;;;;;8.02;56.19;100057.00;5055674;28;20029;-84
2022/01/30 11:02:17;;;;;;;42.13;9.07;;;;;;;7.79;56.17;99998.28;5042163;28;20061;-83
2022/01/30 11:04:44;;;;;;;36.20;6.95;;;;;;;7.78;55.71;99943.50;5038427;28;20301;-84
2022/01/30 11:07:09;;;;;;;39.38;10.48;;;;;;;8.10;55.92;100035.75;5039366;28;20028;-83
2022/01/30 11:09:46;;;;;;;34.53;6.03;;;;;;;7.71;55.96;99958.44;5039497;28;20029;-83
2022/01/30 11:12:15;;;;;;;32.22;6.15;;;;;;;8.39;55.58;100085.81;5037490;28;20379;-84
2022/01/30 11:17:15;;;;;;;36.42;6.65;;;;;;;8.52;54.65;100037.47;5054073;28;20044;-84
2022/01/30 11:19:52;;;;;;;39.13;8.00;;;;;;;8.42;54.59;99987.09;5036877;28;20140;-83
2022/01/30 11:22:22;;;;;;;28.23;6.63;;;;;;;8.09;54.53;99918.94;5037729;28;20040;-83
2022/01/30 11:25:01;;;;;;;34.83;6.43;;;;;;;8.46;54.34;100016.84;5036682;28;20037;-82
2022/01/30 11:27:26;;;;;;;36.60;8.70;;;;;;;7.85;54.44;99834.72;5035830;28;20029;-82
2022/01/30 11:29:52;;;;;;;48.80;8.63;;;;;;;7.70;55.02;99885.03;5035994;28;20577;-83
2022/01/30 11:32:20;;;;;;;36.50;7.22;;;;;;;7.94;55.09;99977.25;5038895;28;20083;-83
2022/01/30 11:34:45;;;;;;;41.63;7.70;;;;;;;7.66;55.43;99955.44;5016475;28;20128;-82
2022/01/30 11:37:17;;;;;;;22.43;6.10;;;;;;;7.89;55.44;100019.41;5015969;28;20052;-82
2022/01/30 11:39:45;;;;;;;37.13;6.95;;;;;;;8.01;54.81;100007.50;5017465;28;20033;-82
2022/01/30 11:42:20;;;;;;;29.48;6.80;;;;;;;8.08;55.08;100039.53;5024410;28;20084;-83
2022/01/30 11:44:48;;;;;;;23.10;6.25;;;;;;;8.53;54.84;100124.28;5051879;28;20518;-82
2022/01/30 11:47:13;;;;;;;28.73;6.38;;;;;;;8.94;53.96;100120.78;5035912;28;20033;-82
2022/01/30 11:50:00;;;;;;;47.70;6.90;;;;;;;8.58;53.75;99978.25;5035556;28;20071;-82
2022/01/30 11:53:00;;;;;;;35.97;6.10;;;;;;;8.39;53.92;99995.38;5035432;28;20036;-82
2022/01/30 11:55:49;;;;;;;27.90;5.57;;;;;;;7.95;54.49;99939.84;5036325;28;20099;-82
2022/01/30 11:58:33;;;;;;;25.27;6.60;;;;;;;7.69;54.87;99933.84;5052702;28;20045;-82
2022/01/30 12:01:12;;;;;;;28.63;7.68;;;;;;;8.20;54.13;100001.03;5053254;28;20087;-82
2022/01/30 12:03:38;;;;;;;37.05;6.30;;;;;;;8.22;54.11;100015.81;5050342;28;20124;-82
2022/01/30 12:06:21;;;;;;;34.15;5.40;;;;;;;7.69;54.43;99918.72;5036059;28;20122;-82
2022/01/30 12:08:48;;;;;;;33.25;7.05;;;;;;;7.99;54.25;99988.22;5034485;28;20037;-83
2022/01/30 12:11:34;;;;;;;23.83;5.57;;;;;;;7.92;53.54;99900.31;5035843;28;20086;-82
2022/01/30 12:14:03;;;;;;;35.17;6.03;;;;;;;7.75;53.74;99901.28;5055832;28;20044;-82
2022/01/30 12:16:43;;;;;;;29.80;6.68;;;;;;;7.82;52.88;99851.84;5043967;28;20448;-83
2022/01/30 12:19:11;;;;;;;22.55;5.13;;;;;;;7.85;52.40;99856.81;5049676;28;20128;-83
2022/01/30 12:21:36;;;;;;;32.10;6.03;;;;;;;7.79;52.53;99828.22;5050886;28;20098;-82
2022/01/30 12:24:20;;;;;;;45.67;6.20;;;;;;;7.40;53.32;99803.16;5032313;28;20024;-82
2022/01/30 12:26:52;;;;;;;34.58;7.07;;;;;;;7.53;52.99;99833.72;5036240;28;20036;-82
2022/01/30 12:29:40;;;;;;;21.65;5.35;;;;;;;7.73;52.51;99847.50;5037996;28;20551;-83
2022/01/30 12:32:24;;;;;;;29.25;5.22;;;;;;;7.87;52.17;99832.72;5038698;28;20037;-83
2022/01/30 12:34:52;;;;;;;31.08;4.80;;;;;;;7.97;51.82;99810.28;5037361;28;20032;-82
2022/01/30 12:37:24;;;;;;;25.20;5.75;;;;;;;7.86;52.37;99869.09;5038790;28;20494;-83
2022/01/30 12:39:50;;;;;;;25.55;4.85;;;;;;;8.03;52.26;99894.69;5038593;28;20044;-82
2022/01/30 12:42:16;;;;;;;24.83;6.00;;;;;;;7.95;52.16;99854.78;5035899;28;20406;-82